createdAt,value
2022-09-15T00:01:10.948Z,98856.00
2022-09-15T00:03:39.828Z,98859.00
2022-09-15T00:06:08.403Z,98852.00
2022-09-15T00:08:35.875Z,98850.00
2022-09-15T00:11:19.450Z,98853.00
2022-09-15T00:13:47.236Z,98848.00
2022-09-15T00:16:15.781Z,98843.00
2022-09-15T00:18:45.176Z,98840.00
2022-09-15T00:21:18.438Z,98846.00
2022-09-15T00:23:45.999Z,98841.00
2022-09-15T00:26:17.967Z,98843.00
2022-09-15T00:28:45.335Z,98848.00
2022-09-15T00:31:22.549Z,98841.00
2022-09-15T00:33:54.298Z,98839.00
2022-09-15T00:36:23.287Z,98837.00
2022-09-15T00:38:51.033Z,98834.00
2022-09-15T00:41:21.904Z,98836.00
2022-09-15T00:43:58.005Z,98833.00
2022-09-15T00:46:39.460Z,98822.00
2022-09-15T00:49:14.809Z,98821.00
2022-09-15T00:51:47.926Z,98829.00
2022-09-15T00:54:37.491Z,98816.00
2022-09-15T00:57:12.562Z,98824.00
2022-09-15T00:59:42.845Z,98820.00
2022-09-15T01:02:33.248Z,98813.00
2022-09-15T01:05:07.530Z,98818.00
2022-09-15T01:07:40.800Z,98811.00
2022-09-15T01:10:25.788Z,98808.00
2022-09-15T01:12:59.716Z,98810.00
2022-09-15T01:15:47.429Z,98811.00
2022-09-15T01:18:28.871Z,98806.00
2022-09-15T01:21:29.211Z,98805.00
2022-09-15T01:24:18.000Z,98802.00
2022-09-15T01:27:24.097Z,98799.00
2022-09-15T01:30:11.077Z,98788.00
2022-09-15T01:33:30.659Z,98793.00
2022-09-15T01:36:11.372Z,98785.00
2022-09-15T01:39:03.100Z,98793.00
2022-09-15T01:41:53.208Z,98788.00
2022-09-15T01:44:28.447Z,98778.00
2022-09-15T01:47:01.894Z,98767.00
2022-09-15T01:49:41.605Z,98779.00
2022-09-15T01:52:09.250Z,98754.00
2022-09-15T01:54:45.863Z,98780.00
2022-09-15T01:57:12.961Z,98783.00
2022-09-15T01:59:39.948Z,98776.00
2022-09-15T02:02:19.127Z,98778.00
2022-09-15T02:05:34.728Z,98781.00
2022-09-15T02:08:25.208Z,98770.00
2022-09-15T02:11:07.224Z,98772.00
2022-09-15T02:14:03.012Z,98770.00
2022-09-15T02:16:35.620Z,98768.00
2022-09-15T02:19:42.462Z,98765.00
2022-09-15T02:22:34.723Z,98748.00
2022-09-15T02:25:09.956Z,98762.00
2022-09-15T02:27:50.203Z,98768.00
2022-09-15T02:30:20.150Z,98764.00
2022-09-15T02:32:56.351Z,98758.00
2022-09-15T02:35:28.742Z,98751.00
2022-09-15T02:37:58.829Z,98754.00
2022-09-15T02:40:28.866Z,98756.00
2022-09-15T02:43:01.982Z,98752.00
2022-09-15T02:45:33.505Z,98754.00
2022-09-15T02:48:00.725Z,98737.00
2022-09-15T02:50:27.855Z,98771.00
2022-09-15T02:52:56.046Z,98767.00
2022-09-15T02:55:29.194Z,98758.00
2022-09-15T02:58:03.819Z,98759.00
2022-09-15T03:00:33.757Z,98756.00
2022-09-15T03:03:03.922Z,98757.00
2022-09-15T03:05:31.593Z,98753.00
2022-09-15T03:08:02.449Z,98761.00
2022-09-15T03:10:33.646Z,98754.00
2022-09-15T03:13:03.142Z,98750.00
2022-09-15T03:15:36.363Z,98750.00
2022-09-15T03:18:17.796Z,98743.00
2022-09-15T03:20:50.179Z,98748.00
2022-09-15T03:23:25.658Z,98746.00
2022-09-15T03:25:52.860Z,98750.00
2022-09-15T03:28:33.666Z,98740.00
2022-09-15T03:31:16.059Z,98735.00
2022-09-15T03:33:49.953Z,98721.00
2022-09-15T03:36:27.527Z,98724.00
2022-09-15T03:39:08.692Z,98727.00
2022-09-15T03:41:43.445Z,98726.00
2022-09-15T03:44:13.119Z,98721.00
2022-09-15T03:46:52.378Z,98721.00
2022-09-15T03:49:19.617Z,98718.00
2022-09-15T03:51:53.935Z,98718.00
2022-09-15T03:54:31.948Z,98709.00
2022-09-15T03:57:06.296Z,98714.00
2022-09-15T03:59:36.527Z,98713.00
2022-09-15T04:02:07.167Z,98711.00
2022-09-15T04:04:43.367Z,98707.00
2022-09-15T04:07:15.816Z,98707.00
2022-09-15T04:09:43.127Z,98707.00
2022-09-15T04:12:15.772Z,98698.00
2022-09-15T04:14:56.049Z,98700.00
2022-09-15T04:17:31.603Z,98701.00
2022-09-15T04:20:04.332Z,98650.00
2022-09-15T04:22:34.594Z,98688.00
2022-09-15T04:25:12.097Z,98689.00
2022-09-15T04:27:41.536Z,98682.00
2022-09-15T04:30:19.375Z,98676.00
2022-09-15T04:32:53.904Z,98679.00
2022-09-15T04:35:29.076Z,98676.00
2022-09-15T04:38:03.788Z,98680.00
2022-09-15T04:40:31.396Z,98682.00
2022-09-15T04:42:58.642Z,98669.00
2022-09-15T04:45:33.469Z,98683.00
2022-09-15T04:48:10.501Z,98675.00
2022-09-15T04:50:43.670Z,98680.00
2022-09-15T04:53:16.214Z,98689.00
2022-09-15T04:55:50.204Z,98680.00
2022-09-15T04:58:28.440Z,98686.00
2022-09-15T05:01:07.271Z,98684.00
2022-09-15T05:03:39.487Z,98679.00
2022-09-15T05:06:12.300Z,98686.00
2022-09-15T05:08:39.846Z,98681.00
2022-09-15T05:11:11.549Z,98675.00
2022-09-15T05:13:42.500Z,98675.00
2022-09-15T05:16:15.403Z,98668.00
2022-09-15T05:18:58.916Z,98674.00
2022-09-15T05:21:26.702Z,98676.00
2022-09-15T05:23:54.961Z,98674.00
2022-09-15T05:26:29.949Z,98676.00
2022-09-15T05:29:00.421Z,98675.00
2022-09-15T05:31:33.979Z,98649.00
2022-09-15T05:34:11.307Z,98679.00
2022-09-15T05:36:40.970Z,98671.00
2022-09-15T05:39:15.569Z,98670.00
2022-09-15T05:41:48.075Z,98678.00
2022-09-15T05:44:15.423Z,98667.00
2022-09-15T05:46:42.883Z,98671.00
2022-09-15T05:49:12.360Z,98668.00
2022-09-15T05:51:42.147Z,98663.00
2022-09-15T05:54:19.085Z,98661.00
2022-09-15T05:56:48.648Z,98661.00
2022-09-15T05:59:23.576Z,98645.00
2022-09-15T06:01:53.362Z,98656.00
2022-09-15T06:04:23.129Z,98654.00
2022-09-15T06:06:50.238Z,98640.00
2022-09-15T06:09:19.948Z,98646.00
2022-09-15T06:11:52.514Z,98642.00
2022-09-15T06:14:27.345Z,98637.00
2022-09-15T06:17:00.628Z,98642.00
2022-09-15T06:19:30.058Z,98635.00
2022-09-15T06:22:00.265Z,98629.00
2022-09-15T06:24:39.146Z,98635.00
2022-09-15T06:27:09.510Z,98630.00
2022-09-15T06:29:57.819Z,98632.00
2022-09-15T06:32:37.095Z,98640.00
2022-09-15T06:35:08.072Z,98642.00
2022-09-15T06:37:38.061Z,98599.00
2022-09-15T06:40:12.081Z,98641.00
2022-09-15T06:42:47.708Z,98636.00
2022-09-15T06:45:23.523Z,98630.00
2022-09-15T06:48:20.225Z,98629.00
2022-09-15T06:50:55.110Z,98635.00
2022-09-15T06:53:26.860Z,98639.00
2022-09-15T06:55:54.129Z,98632.00
2022-09-15T06:58:26.652Z,98628.00
2022-09-15T07:01:04.553Z,98647.00
2022-09-15T07:03:44.900Z,98645.00
2022-09-15T07:06:13.142Z,98647.00
2022-09-15T07:08:42.472Z,98647.00
2022-09-15T07:11:14.232Z,98654.00
2022-09-15T07:13:41.640Z,98657.00
2022-09-15T07:16:20.657Z,98655.00
2022-09-15T07:18:55.468Z,98655.00
2022-09-15T07:21:27.431Z,98665.00
2022-09-15T07:24:07.334Z,98660.00
2022-09-15T07:26:52.165Z,98666.00
2022-09-15T07:29:24.702Z,98652.00
2022-09-15T07:31:57.819Z,98665.00
2022-09-15T07:34:24.948Z,98665.00
2022-09-15T07:36:52.210Z,98673.00
2022-09-15T07:39:21.972Z,98672.00
2022-09-15T07:41:52.106Z,98670.00
2022-09-15T07:44:19.302Z,98667.00
2022-09-15T07:46:48.856Z,98672.00
2022-09-15T07:49:16.202Z,98673.00
2022-09-15T07:51:48.249Z,98663.00
2022-09-15T07:54:24.004Z,98665.00
2022-09-15T07:56:54.240Z,98666.00
2022-09-15T07:59:21.471Z,98674.00
2022-09-15T08:01:57.047Z,98668.00
2022-09-15T08:04:27.399Z,98663.00
2022-09-15T08:07:00.078Z,98664.00
2022-09-15T08:09:29.894Z,98656.00
2022-09-15T08:11:57.123Z,98664.00
2022-09-15T08:14:32.889Z,98670.00
2022-09-15T08:17:11.900Z,98668.00
2022-09-15T08:19:39.357Z,98665.00
2022-09-15T08:22:13.654Z,98674.00
2022-09-15T08:24:43.646Z,98687.00
2022-09-15T08:27:13.064Z,98691.00
2022-09-15T08:29:43.531Z,98685.00
2022-09-15T08:32:13.299Z,98686.00
2022-09-15T08:34:48.253Z,98698.00
2022-09-15T08:37:19.575Z,98677.00
2022-09-15T08:39:49.574Z,98690.00
2022-09-15T08:42:24.283Z,98691.00
2022-09-15T08:45:29.552Z,98688.00
2022-09-15T08:48:03.566Z,98685.00
2022-09-15T08:50:50.554Z,98699.00
2022-09-15T08:53:35.879Z,98668.00
2022-09-15T08:56:17.101Z,98680.00
2022-09-15T08:58:54.188Z,98693.00
2022-09-15T09:02:18.777Z,98691.00
2022-09-15T09:05:13.491Z,98687.00
2022-09-15T09:07:43.699Z,98687.00
2022-09-15T09:10:25.052Z,98687.00
2022-09-15T09:13:22.828Z,98688.00
2022-09-15T09:16:39.640Z,98704.00
2022-09-15T09:19:45.365Z,98706.00
2022-09-15T09:22:32.662Z,98697.00
2022-09-15T09:25:26.212Z,98701.00
2022-09-15T09:27:55.884Z,98694.00
2022-09-15T09:30:28.747Z,98691.00
2022-09-15T09:33:59.637Z,98686.00
2022-09-15T09:36:27.343Z,98685.00
2022-09-15T09:39:07.467Z,98684.00
2022-09-15T09:41:42.199Z,98682.00
2022-09-15T09:44:34.623Z,98680.00
2022-09-15T09:47:04.031Z,98670.00
2022-09-15T09:49:38.115Z,98675.00
2022-09-15T09:52:13.842Z,98662.00
2022-09-15T09:54:45.473Z,98670.00
2022-09-15T09:57:30.776Z,98687.00
2022-09-15T10:00:00.637Z,98682.00
2022-09-15T10:02:32.554Z,98689.00
2022-09-15T10:05:14.127Z,98683.00
2022-09-15T10:07:48.958Z,98678.00
2022-09-15T10:10:36.455Z,98670.00
2022-09-15T10:13:22.994Z,98684.00
2022-09-15T10:16:11.785Z,98657.00
2022-09-15T10:18:42.171Z,98670.00
2022-09-15T10:21:13.185Z,98667.00
2022-09-15T10:23:48.164Z,98648.00
2022-09-15T10:26:43.318Z,98667.00
2022-09-15T10:29:21.028Z,98653.00
2022-09-15T10:31:51.821Z,98666.00
2022-09-15T10:34:33.622Z,98667.00
2022-09-15T10:37:15.857Z,98669.00
2022-09-15T10:40:00.284Z,98668.00
2022-09-15T10:42:58.126Z,98636.00
2022-09-15T10:45:44.765Z,98639.00
2022-09-15T10:48:50.288Z,98635.00
2022-09-15T10:52:48.092Z,98616.00
2022-09-15T10:55:52.812Z,98635.00
2022-09-15T10:58:32.876Z,98624.00
2022-09-15T11:01:24.068Z,98629.00
2022-09-15T11:04:21.074Z,98632.00
2022-09-15T11:07:02.932Z,98634.00
2022-09-15T11:10:06.396Z,98634.00
2022-09-15T11:13:04.666Z,98623.00
2022-09-15T11:15:48.766Z,98640.00
2022-09-15T11:18:48.452Z,98650.00
2022-09-15T11:21:39.217Z,98641.00
2022-09-15T11:24:50.025Z,98644.00
2022-09-15T11:27:36.310Z,98640.00
2022-09-15T11:30:30.727Z,98639.00
2022-09-15T11:33:26.261Z,98635.00
2022-09-15T11:36:15.830Z,98639.00
2022-09-15T11:39:21.101Z,98641.00
2022-09-15T11:42:01.941Z,98660.00
2022-09-15T11:44:45.218Z,98659.00
2022-09-15T11:47:46.831Z,98670.00
2022-09-15T11:50:33.776Z,98676.00
2022-09-15T11:53:56.326Z,98713.00
2022-09-15T11:56:57.373Z,98737.00
2022-09-15T11:59:45.944Z,98736.00
2022-09-15T12:02:30.516Z,98704.00
2022-09-15T12:05:39.930Z,98710.00
2022-09-15T12:09:05.877Z,98706.00
2022-09-15T12:11:50.659Z,98705.00
2022-09-15T12:14:38.981Z,98684.00
2022-09-15T12:17:23.462Z,98707.00
2022-09-15T12:20:07.978Z,98700.00
2022-09-15T12:22:56.643Z,98719.00
2022-09-15T12:26:03.924Z,98716.00
2022-09-15T12:28:56.298Z,98729.00
2022-09-15T12:31:26.514Z,98726.00
2022-09-15T12:34:06.357Z,98721.00
2022-09-15T12:36:49.027Z,98721.00
2022-09-15T12:39:42.205Z,98709.00
2022-09-15T12:42:37.990Z,98701.00
2022-09-15T12:45:29.148Z,98711.00
2022-09-15T12:48:15.986Z,98708.00
2022-09-15T12:50:56.632Z,98709.00
2022-09-15T12:53:32.368Z,98707.00
2022-09-15T12:56:08.631Z,98695.00
2022-09-15T12:59:13.767Z,98686.00
2022-09-15T13:01:54.248Z,98700.00
2022-09-15T13:04:51.912Z,98701.00
2022-09-15T13:07:43.326Z,98695.00
2022-09-15T13:10:33.991Z,98704.00
2022-09-15T13:13:28.732Z,98696.00
2022-09-15T13:16:09.778Z,98695.00
2022-09-15T13:18:46.742Z,98697.00
2022-09-15T13:21:25.214Z,98702.00
2022-09-15T13:24:00.664Z,98704.00
2022-09-15T13:26:33.267Z,98710.00
2022-09-15T13:29:09.394Z,98706.00
2022-09-15T13:32:09.514Z,98705.00
2022-09-15T13:35:22.076Z,98709.00
2022-09-15T13:38:54.924Z,98712.00
2022-09-15T13:42:03.700Z,98698.00
2022-09-15T13:45:43.605Z,98707.00
2022-09-15T13:48:44.143Z,98700.00
2022-09-15T13:51:27.910Z,98708.00
2022-09-15T13:54:06.978Z,98695.00
2022-09-15T13:56:40.051Z,98709.00
2022-09-15T13:59:31.233Z,98692.00
2022-09-15T14:02:03.187Z,98703.00
2022-09-15T14:04:36.496Z,98698.00
2022-09-15T14:07:03.877Z,98698.00
2022-09-15T14:09:44.948Z,98673.00
2022-09-15T14:12:21.707Z,98683.00
2022-09-15T14:14:58.255Z,98687.00
2022-09-15T14:17:35.800Z,98678.00
2022-09-15T14:20:21.922Z,98691.00
2022-09-15T14:22:55.453Z,98691.00
2022-09-15T14:25:33.777Z,98678.00
2022-09-15T14:28:08.218Z,98688.00
2022-09-15T14:30:38.224Z,98678.00
2022-09-15T14:33:06.412Z,98674.00
2022-09-15T14:35:38.419Z,98680.00
2022-09-15T14:38:07.716Z,98685.00
2022-09-15T14:40:45.791Z,98694.00
2022-09-15T14:43:27.757Z,98678.00
2022-09-15T14:46:13.632Z,98676.00
2022-09-15T14:48:40.993Z,98684.00
2022-09-15T14:51:38.594Z,98673.00
2022-09-15T14:54:15.670Z,98678.00
2022-09-15T15:08:40.972Z,98679.00
2022-09-15T15:15:05.682Z,98664.00
2022-09-15T15:17:49.281Z,98671.00
2022-09-15T15:20:27.251Z,98666.00
2022-09-15T15:23:26.442Z,98675.00
2022-09-15T15:26:17.381Z,98676.00
2022-09-15T15:28:46.701Z,98676.00
2022-09-15T15:31:29.772Z,98685.00
2022-09-15T15:34:07.703Z,98677.00
2022-09-15T15:36:37.873Z,98676.00
2022-09-15T15:39:09.393Z,98676.00
2022-09-15T15:41:43.581Z,98656.00
2022-09-15T15:44:17.169Z,98679.00
2022-09-15T15:47:24.672Z,98687.00
2022-09-15T15:50:20.972Z,98675.00
2022-09-15T15:52:52.771Z,98684.00
2022-09-15T15:55:31.059Z,98674.00
2022-09-15T15:58:03.458Z,98685.00
2022-09-15T16:01:04.068Z,98682.00
2022-09-15T16:03:34.209Z,98690.00
2022-09-15T16:06:03.192Z,98682.00
2022-09-15T16:08:40.906Z,98690.00
2022-09-15T16:11:18.204Z,98684.00
2022-09-15T16:13:48.669Z,98682.00
2022-09-15T16:16:26.245Z,98697.00
2022-09-15T16:19:04.850Z,98692.00
2022-09-15T16:21:45.398Z,98694.00
2022-09-15T16:24:16.593Z,98691.00
2022-09-15T16:26:49.519Z,98685.00
2022-09-15T16:29:29.260Z,98702.00
2022-09-15T16:31:56.675Z,98702.00
2022-09-15T16:34:25.182Z,98692.00
2022-09-15T16:37:00.990Z,98694.00
2022-09-15T16:39:28.335Z,98697.00
2022-09-15T16:44:32.708Z,98700.00
2022-09-15T16:47:03.125Z,98693.00
2022-09-15T16:49:37.663Z,98706.00
2022-09-15T16:52:05.232Z,98704.00
2022-09-15T16:54:35.648Z,98695.00
2022-09-15T16:57:05.032Z,98694.00
2022-09-15T16:59:32.409Z,98694.00
2022-09-15T17:01:59.698Z,98692.00
2022-09-15T17:04:33.024Z,98697.00
2022-09-15T17:07:13.630Z,98697.00
2022-09-15T17:09:44.143Z,98703.00
2022-09-15T17:14:47.124Z,98694.00
2022-09-15T17:17:26.582Z,98703.00
2022-09-15T17:19:59.170Z,98697.00
2022-09-15T17:22:26.506Z,98691.00
2022-09-15T17:24:56.162Z,98692.00
2022-09-15T17:27:30.929Z,98688.00
2022-09-15T17:30:06.502Z,98693.00
2022-09-15T17:32:35.034Z,98687.00
2022-09-15T17:35:05.453Z,98700.00
2022-09-15T17:37:32.703Z,98701.00
2022-09-15T17:40:07.598Z,98704.00
2022-09-15T17:42:40.646Z,98691.00
2022-09-15T17:45:21.562Z,98702.00
2022-09-15T17:47:49.176Z,98700.00
2022-09-15T17:50:28.725Z,98700.00
2022-09-15T17:53:01.724Z,98700.00
2022-09-15T17:55:35.337Z,98684.00
2022-09-15T17:58:03.847Z,98703.00
2022-09-15T18:00:40.684Z,98693.00
2022-09-15T18:03:40.429Z,98708.00
2022-09-15T18:06:14.566Z,98703.00
2022-09-15T18:08:45.059Z,98708.00
2022-09-15T18:11:18.009Z,98701.00
2022-09-15T18:13:53.980Z,98708.00
2022-09-15T18:16:21.601Z,98694.00
2022-09-15T18:18:52.132Z,98698.00
2022-09-15T18:21:29.220Z,98706.00
2022-09-15T18:24:08.130Z,98701.00
2022-09-15T18:26:38.416Z,98691.00
2022-09-15T18:29:10.007Z,98707.00
2022-09-15T18:31:37.415Z,98705.00
2022-09-15T18:34:10.492Z,98703.00
2022-09-15T18:36:50.898Z,98697.00
2022-09-15T18:39:23.780Z,98699.00
2022-09-15T18:41:54.899Z,98689.00
2022-09-15T18:44:28.090Z,98679.00
2022-09-15T18:46:58.533Z,98677.00
2022-09-15T18:49:28.277Z,98692.00
2022-09-15T18:52:03.827Z,98692.00
2022-09-15T18:54:36.438Z,98692.00
2022-09-15T18:57:06.754Z,98694.00
2022-09-15T18:59:37.011Z,98696.00
2022-09-15T19:02:07.709Z,98695.00
2022-09-15T19:04:41.982Z,98701.00
2022-09-15T19:07:14.794Z,98686.00
2022-09-15T19:09:42.794Z,98693.00
2022-09-15T19:12:13.909Z,98692.00
2022-09-15T19:14:50.642Z,98697.00
2022-09-15T19:17:21.321Z,98686.00
2022-09-15T19:19:52.453Z,98669.00
2022-09-15T19:22:22.233Z,98685.00
2022-09-15T19:24:49.490Z,98684.00
2022-09-15T19:27:24.378Z,98687.00
2022-09-15T19:29:54.711Z,98687.00
2022-09-15T19:32:29.360Z,98686.00
2022-09-15T19:34:59.933Z,98681.00
2022-09-15T19:37:32.430Z,98683.00
2022-09-15T19:40:10.932Z,98677.00
2022-09-15T19:42:46.243Z,98695.00
2022-09-15T19:45:18.789Z,98684.00
2022-09-15T19:47:48.639Z,98686.00
2022-09-15T19:50:15.870Z,98682.00
2022-09-15T19:52:48.565Z,98677.00
2022-09-15T19:55:23.347Z,98683.00
2022-09-15T19:57:50.610Z,98669.00
2022-09-15T20:00:20.985Z,98688.00
2022-09-15T20:02:48.786Z,98677.00
2022-09-15T20:05:21.374Z,98682.00
2022-09-15T20:07:58.268Z,98691.00
2022-09-15T20:10:27.911Z,98686.00
2022-09-15T20:13:03.183Z,98683.00
2022-09-15T20:15:33.404Z,98686.00
2022-09-15T20:18:06.710Z,98689.00
2022-09-15T20:20:44.809Z,98684.00
2022-09-15T20:23:12.177Z,98689.00
2022-09-15T20:25:39.364Z,98684.00
2022-09-15T20:28:06.710Z,98693.00
2022-09-15T20:30:39.216Z,98689.00
2022-09-15T20:33:08.868Z,98683.00
2022-09-15T20:35:38.941Z,98679.00
2022-09-15T20:38:20.448Z,98620.00
2022-09-15T20:40:58.624Z,98659.00
2022-09-15T20:43:31.518Z,98672.00
2022-09-15T20:46:05.331Z,98668.00
2022-09-15T20:48:47.084Z,98668.00
2022-09-15T20:51:34.536Z,98671.00
2022-09-15T20:54:07.941Z,98669.00
2022-09-15T20:56:37.157Z,98668.00
2022-09-15T20:59:12.831Z,98668.00
2022-09-15T21:01:46.632Z,98670.00
2022-09-15T21:04:16.916Z,98674.00
2022-09-15T21:06:46.887Z,98671.00
2022-09-15T21:09:19.720Z,98674.00
2022-09-15T21:11:53.249Z,98674.00
2022-09-15T21:14:23.913Z,98672.00
2022-09-15T21:16:52.619Z,98678.00
2022-09-15T21:19:20.576Z,98684.00
2022-09-15T21:21:54.201Z,98683.00
2022-09-15T21:24:25.364Z,98683.00
2022-09-15T21:27:12.792Z,98676.00
2022-09-15T21:29:40.764Z,98679.00
2022-09-15T21:32:09.017Z,98678.00
2022-09-15T21:34:36.798Z,98692.00
2022-09-15T21:37:06.590Z,98677.00
2022-09-15T21:39:36.786Z,98663.00
2022-09-15T21:42:09.545Z,98675.00
2022-09-15T21:44:40.195Z,98676.00
2022-09-15T21:47:08.864Z,98674.00
2022-09-15T21:49:36.697Z,98675.00
2022-09-15T21:52:15.175Z,98671.00
2022-09-15T21:54:43.604Z,98671.00
2022-09-15T21:57:10.821Z,98675.00
2022-09-15T21:59:39.460Z,98681.00
2022-09-15T22:02:13.818Z,98679.00
2022-09-15T22:04:44.058Z,98675.00
2022-09-15T22:07:20.463Z,98672.00
2022-09-15T22:09:53.968Z,98683.00
2022-09-15T22:12:26.182Z,98669.00
2022-09-15T22:15:09.871Z,98657.00
2022-09-15T22:17:39.336Z,98671.00
2022-09-15T22:20:09.418Z,98670.00
2022-09-15T22:22:40.655Z,98657.00
2022-09-15T22:25:21.178Z,98665.00
2022-09-15T22:27:51.339Z,98667.00
2022-09-15T22:30:19.039Z,98648.00
2022-09-15T22:32:53.838Z,98668.00
2022-09-15T22:35:21.089Z,98664.00
2022-09-15T22:37:48.404Z,98666.00
2022-09-15T22:40:26.424Z,98664.00
2022-09-15T22:42:56.156Z,98666.00
2022-09-15T22:45:23.460Z,98662.00
2022-09-15T22:47:57.636Z,98662.00
2022-09-15T22:50:30.416Z,98666.00
2022-09-15T22:53:05.772Z,98656.00
2022-09-15T22:55:35.254Z,98663.00
2022-09-15T22:58:02.570Z,98646.00
2022-09-15T23:00:32.563Z,98660.00
2022-09-15T23:03:00.492Z,98660.00
2022-09-15T23:05:34.378Z,98669.00
2022-09-15T23:08:07.842Z,98657.00
2022-09-15T23:10:42.951Z,98645.00
2022-09-15T23:13:13.124Z,98645.00
2022-09-15T23:15:40.373Z,98654.00
2022-09-15T23:18:07.588Z,98645.00
2022-09-15T23:20:47.457Z,98650.00
2022-09-15T23:23:17.692Z,98655.00
2022-09-15T23:25:47.692Z,98652.00
2022-09-15T23:28:14.887Z,98650.00
2022-09-15T23:30:47.454Z,98652.00
2022-09-15T23:33:19.966Z,98635.00
2022-09-15T23:35:57.356Z,98657.00
2022-09-15T23:38:33.347Z,98659.00
2022-09-15T23:41:08.982Z,98649.00
2022-09-15T23:43:39.001Z,98648.00
2022-09-15T23:46:08.341Z,98648.00
2022-09-15T23:48:38.997Z,98647.00
2022-09-15T23:51:09.003Z,98649.00
2022-09-15T23:53:41.945Z,98653.00
2022-09-15T23:56:22.959Z,98638.00
2022-09-15T23:58:50.578Z,98656.00
